sensor_id;sensor_type;location;lat;lon;timestamp;P1;durP1;ratioP1;P2;durP2;ratioP2
9922;SDS011;5000;50.546;9.720;2023-11-22T00:03:30;5.10;;;4.38;;
9922;SDS011;5000;50.546;9.720;2023-11-22T00:08:23;6.45;;;4.78;;
9922;SDS011;5000;50.546;9.720;2023-11-22T00:13:16;5.32;;;4.82;;
9922;SDS011;5000;50.546;9.720;2023-11-22T00:18:11;8.60;;;4.85;;
9922;SDS011;5000;50.546;9.720;2023-11-22T00:23:04;5.78;;;4.63;;
9922;SDS011;5000;50.546;9.720;2023-11-22T00:27:57;5.10;;;4.60;;
9922;SDS011;5000;50.546;9.720;2023-11-22T00:32:50;7.25;;;4.72;;
9922;SDS011;5000;50.546;9.720;2023-11-22T00:37:45;7.45;;;4.50;;
9922;SDS011;5000;50.546;9.720;2023-11-22T00:42:37;5.30;;;4.78;;
9922;SDS011;5000;50.546;9.720;2023-11-22T00:47:33;5.07;;;4.47;;
9922;SDS011;5000;50.546;9.720;2023-11-22T00:52:26;5.28;;;4.32;;
9922;SDS011;5000;50.546;9.720;2023-11-22T00:57:20;6.50;;;5.20;;
9922;SDS011;5000;50.546;9.720;2023-11-22T01:02:13;5.65;;;5.07;;
9922;SDS011;5000;50.546;9.720;2023-11-22T01:07:06;6.60;;;4.88;;
9922;SDS011;5000;50.546;9.720;2023-11-22T01:11:59;9.60;;;4.88;;
9922;SDS011;5000;50.546;9.720;2023-11-22T01:16:54;5.95;;;4.65;;
9922;SDS011;5000;50.546;9.720;2023-11-22T01:21:48;6.80;;;4.97;;
9922;SDS011;5000;50.546;9.720;2023-11-22T01:26:41;9.35;;;5.32;;
9922;SDS011;5000;50.546;9.720;2023-11-22T01:31:34;7.20;;;4.95;;
9922;SDS011;5000;50.546;9.720;2023-11-22T01:36:29;7.43;;;5.68;;
9922;SDS011;5000;50.546;9.720;2023-11-22T01:41:22;6.78;;;5.20;;
9922;SDS011;5000;50.546;9.720;2023-11-22T01:46:18;8.15;;;5.50;;
9922;SDS011;5000;50.546;9.720;2023-11-22T01:51:15;5.30;;;4.68;;
9922;SDS011;5000;50.546;9.720;2023-11-22T01:56:10;9.93;;;4.82;;
9922;SDS011;5000;50.546;9.720;2023-11-22T02:01:03;6.63;;;5.47;;
9922;SDS011;5000;50.546;9.720;2023-11-22T02:05:58;6.35;;;5.53;;
9922;SDS011;5000;50.546;9.720;2023-11-22T02:10:57;6.75;;;5.18;;
9922;SDS011;5000;50.546;9.720;2023-11-22T02:15:54;9.30;;;5.57;;
9922;SDS011;5000;50.546;9.720;2023-11-22T02:20:48;11.68;;;5.72;;
9922;SDS011;5000;50.546;9.720;2023-11-22T02:25:42;6.70;;;5.20;;
9922;SDS011;5000;50.546;9.720;2023-11-22T02:30:37;7.18;;;5.28;;
9922;SDS011;5000;50.546;9.720;2023-11-22T02:35:30;9.60;;;5.50;;
9922;SDS011;5000;50.546;9.720;2023-11-22T02:40:23;7.90;;;5.47;;
9922;SDS011;5000;50.546;9.720;2023-11-22T02:45:19;7.70;;;5.90;;
9922;SDS011;5000;50.546;9.720;2023-11-22T02:50:14;7.20;;;5.47;;
9922;SDS011;5000;50.546;9.720;2023-11-22T02:55:08;6.97;;;5.53;;
9922;SDS011;5000;50.546;9.720;2023-11-22T03:00:02;6.57;;;5.88;;
9922;SDS011;5000;50.546;9.720;2023-11-22T03:04:58;8.70;;;5.50;;
9922;SDS011;5000;50.546;9.720;2023-11-22T03:09:51;8.00;;;5.63;;
9922;SDS011;5000;50.546;9.720;2023-11-22T03:14:44;10.05;;;5.75;;
9922;SDS011;5000;50.546;9.720;2023-11-22T03:19:37;7.68;;;6.32;;
9922;SDS011;5000;50.546;9.720;2023-11-22T03:24:31;6.70;;;5.50;;
9922;SDS011;5000;50.546;9.720;2023-11-22T03:29:25;8.00;;;5.70;;
9922;SDS011;5000;50.546;9.720;2023-11-22T03:34:19;6.43;;;5.32;;
9922;SDS011;5000;50.546;9.720;2023-11-22T03:39:12;9.82;;;5.63;;
9922;SDS011;5000;50.546;9.720;2023-11-22T03:44:07;6.13;;;5.30;;
9922;SDS011;5000;50.546;9.720;2023-11-22T03:49:00;9.38;;;5.88;;
9922;SDS011;5000;50.546;9.720;2023-11-22T03:53:54;10.27;;;5.55;;
9922;SDS011;5000;50.546;9.720;2023-11-22T03:58:47;7.07;;;5.90;;
9922;SDS011;5000;50.546;9.720;2023-11-22T04:03:42;8.82;;;6.22;;
9922;SDS011;5000;50.546;9.720;2023-11-22T04:08:35;7.15;;;5.32;;
9922;SDS011;5000;50.546;9.720;2023-11-22T04:13:29;5.55;;;5.03;;
9922;SDS011;5000;50.546;9.720;2023-11-22T04:18:23;7.80;;;5.65;;
9922;SDS011;5000;50.546;9.720;2023-11-22T04:23:18;11.45;;;6.13;;
9922;SDS011;5000;50.546;9.720;2023-11-22T04:28:12;9.82;;;5.97;;
9922;SDS011;5000;50.546;9.720;2023-11-22T04:33:06;9.80;;;5.78;;
9922;SDS011;5000;50.546;9.720;2023-11-22T04:37:59;7.35;;;6.10;;
9922;SDS011;5000;50.546;9.720;2023-11-22T04:42:54;9.05;;;6.00;;
9922;SDS011;5000;50.546;9.720;2023-11-22T04:47:47;7.28;;;5.22;;
9922;SDS011;5000;50.546;9.720;2023-11-22T04:52:40;8.38;;;5.82;;
9922;SDS011;5000;50.546;9.720;2023-11-22T04:57:33;7.97;;;5.47;;
9922;SDS011;5000;50.546;9.720;2023-11-22T05:02:27;6.63;;;5.10;;
9922;SDS011;5000;50.546;9.720;2023-11-22T05:07:21;7.65;;;5.90;;
9922;SDS011;5000;50.546;9.720;2023-11-22T05:12:14;7.28;;;5.90;;
9922;SDS011;5000;50.546;9.720;2023-11-22T05:17:07;6.63;;;5.18;;
9922;SDS011;5000;50.546;9.720;2023-11-22T05:22:01;7.82;;;5.50;;
9922;SDS011;5000;50.546;9.720;2023-11-22T05:26:54;7.32;;;5.70;;
9922;SDS011;5000;50.546;9.720;2023-11-22T05:31:47;6.13;;;5.20;;
9922;SDS011;5000;50.546;9.720;2023-11-22T05:36:41;5.88;;;5.25;;
9922;SDS011;5000;50.546;9.720;2023-11-22T05:41:36;6.60;;;5.80;;
9922;SDS011;5000;50.546;9.720;2023-11-22T05:46:29;8.38;;;5.72;;
9922;SDS011;5000;50.546;9.720;2023-11-22T05:51:22;7.63;;;5.63;;
9922;SDS011;5000;50.546;9.720;2023-11-22T05:56:15;9.15;;;6.72;;
9922;SDS011;5000;50.546;9.720;2023-11-22T06:01:09;7.50;;;5.53;;
9922;SDS011;5000;50.546;9.720;2023-11-22T06:06:04;7.75;;;5.80;;
9922;SDS011;5000;50.546;9.720;2023-11-22T06:10:57;7.50;;;6.07;;
9922;SDS011;5000;50.546;9.720;2023-11-22T06:15:51;6.32;;;5.65;;
9922;SDS011;5000;50.546;9.720;2023-11-22T06:20:45;7.18;;;5.93;;
9922;SDS011;5000;50.546;9.720;2023-11-22T06:25:39;7.38;;;6.05;;
9922;SDS011;5000;50.546;9.720;2023-11-22T06:30:33;10.68;;;6.10;;
9922;SDS011;5000;50.546;9.720;2023-11-22T06:35:26;9.85;;;7.18;;
9922;SDS011;5000;50.546;9.720;2023-11-22T06:40:21;8.68;;;6.53;;
9922;SDS011;5000;50.546;9.720;2023-11-22T06:45:14;9.43;;;6.72;;
9922;SDS011;5000;50.546;9.720;2023-11-22T06:50:08;7.75;;;5.80;;
9922;SDS011;5000;50.546;9.720;2023-11-22T06:55:02;8.55;;;5.95;;
9922;SDS011;5000;50.546;9.720;2023-11-22T06:59:57;8.35;;;6.28;;
9922;SDS011;5000;50.546;9.720;2023-11-22T07:04:50;7.78;;;5.82;;
9922;SDS011;5000;50.546;9.720;2023-11-22T07:09:43;8.07;;;5.80;;
9922;SDS011;5000;50.546;9.720;2023-11-22T07:14:37;7.50;;;5.95;;
9922;SDS011;5000;50.546;9.720;2023-11-22T07:19:32;8.13;;;6.53;;
9922;SDS011;5000;50.546;9.720;2023-11-22T07:24:26;13.50;;;6.35;;
9922;SDS011;5000;50.546;9.720;2023-11-22T07:29:18;10.77;;;7.22;;
9922;SDS011;5000;50.546;9.720;2023-11-22T07:34:12;9.32;;;6.55;;
9922;SDS011;5000;50.546;9.720;2023-11-22T07:39:07;8.07;;;6.53;;
9922;SDS011;5000;50.546;9.720;2023-11-22T07:44:03;7.97;;;6.45;;
9922;SDS011;5000;50.546;9.720;2023-11-22T07:48:56;9.00;;;6.28;;
9922;SDS011;5000;50.546;9.720;2023-11-22T07:53:49;9.75;;;6.88;;
9922;SDS011;5000;50.546;9.720;2023-11-22T07:58:44;14.48;;;6.85;;
9922;SDS011;5000;50.546;9.720;2023-11-22T08:03:37;9.70;;;6.47;;
9922;SDS011;5000;50.546;9.720;2023-11-22T08:08:32;7.78;;;6.20;;
9922;SDS011;5000;50.546;9.720;2023-11-22T08:13:29;11.32;;;6.20;;
9922;SDS011;5000;50.546;9.720;2023-11-22T08:18:24;6.60;;;5.68;;
9922;SDS011;5000;50.546;9.720;2023-11-22T08:23:18;7.07;;;5.43;;
9922;SDS011;5000;50.546;9.720;2023-11-22T08:28:11;8.00;;;5.53;;
9922;SDS011;5000;50.546;9.720;2023-11-22T08:33:04;6.55;;;5.30;;
9922;SDS011;5000;50.546;9.720;2023-11-22T08:37:59;8.68;;;5.13;;
9922;SDS011;5000;50.546;9.720;2023-11-22T08:42:54;7.80;;;6.03;;
9922;SDS011;5000;50.546;9.720;2023-11-22T08:47:47;4.97;;;4.50;;
9922;SDS011;5000;50.546;9.720;2023-11-22T08:52:43;6.95;;;5.22;;
9922;SDS011;5000;50.546;9.720;2023-11-22T08:57:39;5.53;;;4.70;;
9922;SDS011;5000;50.546;9.720;2023-11-22T09:02:33;5.65;;;4.82;;
9922;SDS011;5000;50.546;9.720;2023-11-22T09:07:27;4.97;;;4.35;;
9922;SDS011;5000;50.546;9.720;2023-11-22T09:12:20;7.53;;;4.85;;
9922;SDS011;5000;50.546;9.720;2023-11-22T09:17:15;5.75;;;3.85;;
9922;SDS011;5000;50.546;9.720;2023-11-22T09:22:08;7.57;;;4.70;;
9922;SDS011;5000;50.546;9.720;2023-11-22T09:27:02;6.07;;;4.47;;
9922;SDS011;5000;50.546;9.720;2023-11-22T09:31:57;7.95;;;5.00;;
9922;SDS011;5000;50.546;9.720;2023-11-22T09:36:53;7.18;;;4.40;;
9922;SDS011;5000;50.546;9.720;2023-11-22T09:41:46;8.10;;;4.50;;
9922;SDS011;5000;50.546;9.720;2023-11-22T09:46:40;8.18;;;3.97;;
9922;SDS011;5000;50.546;9.720;2023-11-22T09:51:34;8.10;;;4.50;;
9922;SDS011;5000;50.546;9.720;2023-11-22T09:56:31;4.97;;;4.43;;
9922;SDS011;5000;50.546;9.720;2023-11-22T10:01:25;4.53;;;3.40;;
9922;SDS011;5000;50.546;9.720;2023-11-22T10:06:22;5.97;;;3.75;;
9922;SDS011;5000;50.546;9.720;2023-11-22T10:11:16;4.50;;;3.88;;
9922;SDS011;5000;50.546;9.720;2023-11-22T10:16:12;7.00;;;3.60;;
9922;SDS011;5000;50.546;9.720;2023-11-22T10:21:17;4.10;;;3.25;;
9922;SDS011;5000;50.546;9.720;2023-11-22T10:26:12;5.93;;;3.72;;
9922;SDS011;5000;50.546;9.720;2023-11-22T10:31:07;4.15;;;3.15;;
9922;SDS011;5000;50.546;9.720;2023-11-22T10:36:02;8.23;;;4.00;;
9922;SDS011;5000;50.546;9.720;2023-11-22T10:40:56;3.70;;;3.40;;
9922;SDS011;5000;50.546;9.720;2023-11-22T10:45:50;5.55;;;3.40;;
9922;SDS011;5000;50.546;9.720;2023-11-22T10:50:47;4.05;;;3.63;;
9922;SDS011;5000;50.546;9.720;2023-11-22T10:55:44;5.18;;;3.70;;
9922;SDS011;5000;50.546;9.720;2023-11-22T11:00:38;3.85;;;3.50;;
9922;SDS011;5000;50.546;9.720;2023-11-22T11:05:36;5.10;;;3.45;;
9922;SDS011;5000;50.546;9.720;2023-11-22T11:10:32;8.35;;;3.80;;
9922;SDS011;5000;50.546;9.720;2023-11-22T11:15:27;7.78;;;4.40;;
9922;SDS011;5000;50.546;9.720;2023-11-22T11:20:22;5.30;;;3.42;;
9922;SDS011;5000;50.546;9.720;2023-11-22T11:25:15;3.10;;;2.85;;
9922;SDS011;5000;50.546;9.720;2023-11-22T11:35:41;3.78;;;3.22;;
9922;SDS011;5000;50.546;9.720;2023-11-22T11:40:37;3.40;;;3.15;;
9922;SDS011;5000;50.546;9.720;2023-11-22T11:45:30;3.38;;;2.80;;
9922;SDS011;5000;50.546;9.720;2023-11-22T11:50:30;3.28;;;3.08;;
9922;SDS011;5000;50.546;9.720;2023-11-22T11:55:23;6.20;;;2.95;;
9922;SDS011;5000;50.546;9.720;2023-11-22T12:00:18;6.93;;;4.07;;
9922;SDS011;5000;50.546;9.720;2023-11-22T12:05:11;9.98;;;4.55;;
9922;SDS011;5000;50.546;9.720;2023-11-22T12:10:07;5.45;;;3.75;;
9922;SDS011;5000;50.546;9.720;2023-11-22T12:15:01;3.63;;;3.13;;
9922;SDS011;5000;50.546;9.720;2023-11-22T12:20:08;3.50;;;3.20;;
9922;SDS011;5000;50.546;9.720;2023-11-22T12:25:03;3.63;;;3.05;;
9922;SDS011;5000;50.546;9.720;2023-11-22T12:29:58;5.18;;;2.70;;
9922;SDS011;5000;50.546;9.720;2023-11-22T12:34:51;4.00;;;2.88;;
9922;SDS011;5000;50.546;9.720;2023-11-22T12:39:45;3.75;;;2.70;;
9922;SDS011;5000;50.546;9.720;2023-11-22T12:44:46;3.28;;;2.97;;
9922;SDS011;5000;50.546;9.720;2023-11-22T12:49:44;2.70;;;2.50;;
9922;SDS011;5000;50.546;9.720;2023-11-22T12:54:38;8.73;;;2.88;;
9922;SDS011;5000;50.546;9.720;2023-11-22T12:59:31;4.82;;;2.95;;
9922;SDS011;5000;50.546;9.720;2023-11-22T13:04:25;2.65;;;2.40;;
9922;SDS011;5000;50.546;9.720;2023-11-22T13:09:21;4.30;;;2.67;;
9922;SDS011;5000;50.546;9.720;2023-11-22T13:14:14;2.15;;;2.05;;
9922;SDS011;5000;50.546;9.720;2023-11-22T13:19:09;2.50;;;2.33;;
9922;SDS011;5000;50.546;9.720;2023-11-22T13:24:02;3.40;;;2.20;;
9922;SDS011;5000;50.546;9.720;2023-11-22T13:28:59;2.53;;;2.20;;
9922;SDS011;5000;50.546;9.720;2023-11-22T13:33:52;2.25;;;2.15;;
9922;SDS011;5000;50.546;9.720;2023-11-22T13:38:46;3.55;;;2.92;;
9922;SDS011;5000;50.546;9.720;2023-11-22T13:43:39;2.60;;;2.30;;
9922;SDS011;5000;50.546;9.720;2023-11-22T13:48:33;27.02;;;15.32;;
9922;SDS011;5000;50.546;9.720;2023-11-22T13:53:27;27.60;;;18.38;;
9922;SDS011;5000;50.546;9.720;2023-11-22T13:58:25;11.55;;;8.93;;
9922;SDS011;5000;50.546;9.720;2023-11-22T14:03:18;8.68;;;7.15;;
9922;SDS011;5000;50.546;9.720;2023-11-22T14:08:12;6.57;;;5.45;;
9922;SDS011;5000;50.546;9.720;2023-11-22T14:13:08;8.70;;;5.88;;
9922;SDS011;5000;50.546;9.720;2023-11-22T14:18:01;6.78;;;5.60;;
9922;SDS011;5000;50.546;9.720;2023-11-22T14:22:55;5.13;;;4.60;;
9922;SDS011;5000;50.546;9.720;2023-11-22T14:27:50;5.93;;;4.93;;
9922;SDS011;5000;50.546;9.720;2023-11-22T14:32:47;5.57;;;4.32;;
9922;SDS011;5000;50.546;9.720;2023-11-22T14:37:43;6.15;;;4.25;;
9922;SDS011;5000;50.546;9.720;2023-11-22T14:42:36;4.43;;;4.03;;
9922;SDS011;5000;50.546;9.720;2023-11-22T14:47:32;4.22;;;3.70;;
9922;SDS011;5000;50.546;9.720;2023-11-22T14:52:28;3.83;;;3.53;;
9922;SDS011;5000;50.546;9.720;2023-11-22T14:57:21;3.88;;;3.45;;
9922;SDS011;5000;50.546;9.720;2023-11-22T15:02:14;4.20;;;3.60;;
9922;SDS011;5000;50.546;9.720;2023-11-22T15:07:08;4.30;;;3.53;;
9922;SDS011;5000;50.546;9.720;2023-11-22T15:12:03;4.07;;;3.40;;
9922;SDS011;5000;50.546;9.720;2023-11-22T15:16:56;3.47;;;3.17;;
9922;SDS011;5000;50.546;9.720;2023-11-22T15:21:50;3.58;;;3.28;;
9922;SDS011;5000;50.546;9.720;2023-11-22T15:26:46;4.18;;;3.20;;
9922;SDS011;5000;50.546;9.720;2023-11-22T15:31:39;3.97;;;3.42;;
9922;SDS011;5000;50.546;9.720;2023-11-22T15:36:34;3.03;;;2.83;;
9922;SDS011;5000;50.546;9.720;2023-11-22T15:41:28;2.70;;;2.55;;
9922;SDS011;5000;50.546;9.720;2023-11-22T15:46:23;3.58;;;3.28;;
9922;SDS011;5000;50.546;9.720;2023-11-22T15:51:16;2.85;;;2.58;;
9922;SDS011;5000;50.546;9.720;2023-11-22T15:56:09;3.55;;;3.00;;
9922;SDS011;5000;50.546;9.720;2023-11-22T16:01:06;3.40;;;3.10;;
9922;SDS011;5000;50.546;9.720;2023-11-22T16:06:01;4.32;;;2.88;;
9922;SDS011;5000;50.546;9.720;2023-11-22T16:10:55;3.30;;;3.00;;
9922;SDS011;5000;50.546;9.720;2023-11-22T16:15:48;2.83;;;2.63;;
9922;SDS011;5000;50.546;9.720;2023-11-22T16:20:42;2.88;;;2.67;;
9922;SDS011;5000;50.546;9.720;2023-11-22T16:25:37;3.08;;;2.88;;
9922;SDS011;5000;50.546;9.720;2023-11-22T16:30:30;3.95;;;3.20;;
9922;SDS011;5000;50.546;9.720;2023-11-22T16:35:26;3.22;;;2.95;;
9922;SDS011;5000;50.546;9.720;2023-11-22T16:40:21;5.03;;;3.00;;
9922;SDS011;5000;50.546;9.720;2023-11-22T16:45:15;4.05;;;3.45;;
9922;SDS011;5000;50.546;9.720;2023-11-22T16:50:09;3.83;;;3.13;;
9922;SDS011;5000;50.546;9.720;2023-11-22T16:55:03;3.92;;;3.10;;
9922;SDS011;5000;50.546;9.720;2023-11-22T16:59:58;3.92;;;3.38;;
9922;SDS011;5000;50.546;9.720;2023-11-22T17:04:53;5.75;;;3.42;;
9922;SDS011;5000;50.546;9.720;2023-11-22T17:09:48;3.97;;;3.33;;
9922;SDS011;5000;50.546;9.720;2023-11-22T17:14:41;4.18;;;3.45;;
9922;SDS011;5000;50.546;9.720;2023-11-22T17:19:34;3.55;;;3.25;;
9922;SDS011;5000;50.546;9.720;2023-11-22T17:24:29;8.23;;;3.30;;
9922;SDS011;5000;50.546;9.720;2023-11-22T17:29:22;4.55;;;3.10;;
9922;SDS011;5000;50.546;9.720;2023-11-22T17:34:16;3.38;;;3.00;;
9922;SDS011;5000;50.546;9.720;2023-11-22T17:39:10;3.42;;;3.13;;
9922;SDS011;5000;50.546;9.720;2023-11-22T17:44:09;5.53;;;3.05;;
9922;SDS011;5000;50.546;9.720;2023-11-22T17:49:02;5.30;;;3.38;;
9922;SDS011;5000;50.546;9.720;2023-11-22T17:53:56;3.97;;;3.50;;
9922;SDS011;5000;50.546;9.720;2023-11-22T17:58:50;3.33;;;2.97;;
9922;SDS011;5000;50.546;9.720;2023-11-22T18:03:44;4.00;;;3.40;;
9922;SDS011;5000;50.546;9.720;2023-11-22T18:08:37;3.97;;;3.13;;
9922;SDS011;5000;50.546;9.720;2023-11-22T18:13:30;3.38;;;3.08;;
9922;SDS011;5000;50.546;9.720;2023-11-22T18:18:23;8.82;;;3.20;;
9922;SDS011;5000;50.546;9.720;2023-11-22T18:23:18;8.20;;;3.05;;
9922;SDS011;5000;50.546;9.720;2023-11-22T18:28:11;3.08;;;2.80;;
9922;SDS011;5000;50.546;9.720;2023-11-22T18:33:04;5.18;;;3.33;;
9922;SDS011;5000;50.546;9.720;2023-11-22T18:38:04;2.78;;;2.58;;
9922;SDS011;5000;50.546;9.720;2023-11-22T18:42:58;4.05;;;3.22;;
9922;SDS011;5000;50.546;9.720;2023-11-22T18:47:52;3.25;;;3.05;;
9922;SDS011;5000;50.546;9.720;2023-11-22T18:52:46;3.38;;;3.08;;
9922;SDS011;5000;50.546;9.720;2023-11-22T18:57:39;4.40;;;3.10;;
9922;SDS011;5000;50.546;9.720;2023-11-22T19:02:34;3.30;;;2.97;;
9922;SDS011;5000;50.546;9.720;2023-11-22T19:07:28;3.30;;;2.90;;
9922;SDS011;5000;50.546;9.720;2023-11-22T19:12:21;3.85;;;3.47;;
9922;SDS011;5000;50.546;9.720;2023-11-22T19:17:15;3.55;;;3.25;;
9922;SDS011;5000;50.546;9.720;2023-11-22T19:22:10;4.20;;;3.35;;
9922;SDS011;5000;50.546;9.720;2023-11-22T19:27:04;4.65;;;3.35;;
9922;SDS011;5000;50.546;9.720;2023-11-22T19:32:00;6.20;;;3.05;;
9922;SDS011;5000;50.546;9.720;2023-11-22T19:36:54;3.25;;;2.90;;
9922;SDS011;5000;50.546;9.720;2023-11-22T19:41:49;3.47;;;3.15;;
9922;SDS011;5000;50.546;9.720;2023-11-22T19:46:44;4.80;;;3.38;;
9922;SDS011;5000;50.546;9.720;2023-11-22T19:51:38;3.30;;;3.00;;
9922;SDS011;5000;50.546;9.720;2023-11-22T19:56:31;3.50;;;3.20;;
9922;SDS011;5000;50.546;9.720;2023-11-22T20:01:25;3.35;;;2.97;;
9922;SDS011;5000;50.546;9.720;2023-11-22T20:06:19;3.35;;;3.05;;
9922;SDS011;5000;50.546;9.720;2023-11-22T20:11:12;5.20;;;3.03;;
9922;SDS011;5000;50.546;9.720;2023-11-22T20:16:05;3.83;;;3.08;;
9922;SDS011;5000;50.546;9.720;2023-11-22T20:21:00;3.42;;;2.85;;
9922;SDS011;5000;50.546;9.720;2023-11-22T20:25:53;3.40;;;2.88;;
9922;SDS011;5000;50.546;9.720;2023-11-22T20:30:47;3.70;;;3.40;;
9922;SDS011;5000;50.546;9.720;2023-11-22T20:35:40;5.35;;;3.25;;
9922;SDS011;5000;50.546;9.720;2023-11-22T20:40:36;10.07;;;3.30;;
9922;SDS011;5000;50.546;9.720;2023-11-22T20:45:29;3.13;;;2.83;;
9922;SDS011;5000;50.546;9.720;2023-11-22T20:50:22;3.97;;;3.20;;
9922;SDS011;5000;50.546;9.720;2023-11-22T20:55:16;3.58;;;3.10;;
9922;SDS011;5000;50.546;9.720;2023-11-22T21:00:11;3.35;;;3.05;;
9922;SDS011;5000;50.546;9.720;2023-11-22T21:05:06;3.83;;;3.22;;
9922;SDS011;5000;50.546;9.720;2023-11-22T21:09:59;3.42;;;3.13;;
9922;SDS011;5000;50.546;9.720;2023-11-22T21:14:52;4.15;;;3.47;;
9922;SDS011;5000;50.546;9.720;2023-11-22T21:19:47;4.18;;;3.38;;
9922;SDS011;5000;50.546;9.720;2023-11-22T21:24:41;6.93;;;3.53;;
9922;SDS011;5000;50.546;9.720;2023-11-22T21:29:34;3.25;;;2.95;;
9922;SDS011;5000;50.546;9.720;2023-11-22T21:34:27;4.07;;;3.20;;
9922;SDS011;5000;50.546;9.720;2023-11-22T21:39:21;4.28;;;3.40;;
9922;SDS011;5000;50.546;9.720;2023-11-22T21:44:16;3.67;;;3.20;;
9922;SDS011;5000;50.546;9.720;2023-11-22T21:49:10;2.85;;;2.65;;
9922;SDS011;5000;50.546;9.720;2023-11-22T21:54:04;3.17;;;2.92;;
9922;SDS011;5000;50.546;9.720;2023-11-22T21:58:59;3.80;;;3.15;;
9922;SDS011;5000;50.546;9.720;2023-11-22T22:03:52;3.20;;;3.00;;
9922;SDS011;5000;50.546;9.720;2023-11-22T22:08:45;3.92;;;2.95;;
9922;SDS011;5000;50.546;9.720;2023-11-22T22:13:40;5.65;;;3.00;;
9922;SDS011;5000;50.546;9.720;2023-11-22T22:18:34;4.85;;;3.13;;
9922;SDS011;5000;50.546;9.720;2023-11-22T22:23:28;4.13;;;3.30;;
9922;SDS011;5000;50.546;9.720;2023-11-22T22:28:22;3.40;;;3.10;;
9922;SDS011;5000;50.546;9.720;2023-11-22T22:33:20;3.08;;;2.80;;
9922;SDS011;5000;50.546;9.720;2023-11-22T22:38:14;6.25;;;3.65;;
9922;SDS011;5000;50.546;9.720;2023-11-22T22:43:07;4.13;;;3.13;;
9922;SDS011;5000;50.546;9.720;2023-11-22T22:48:01;3.40;;;3.10;;
9922;SDS011;5000;50.546;9.720;2023-11-22T22:52:55;3.70;;;3.40;;
9922;SDS011;5000;50.546;9.720;2023-11-22T22:57:49;3.70;;;3.38;;
9922;SDS011;5000;50.546;9.720;2023-11-22T23:02:42;3.28;;;2.97;;
9922;SDS011;5000;50.546;9.720;2023-11-22T23:07:35;3.67;;;3.08;;
9922;SDS011;5000;50.546;9.720;2023-11-22T23:12:28;6.85;;;2.90;;
9922;SDS011;5000;50.546;9.720;2023-11-22T23:17:23;4.32;;;3.30;;
9922;SDS011;5000;50.546;9.720;2023-11-22T23:22:16;4.60;;;3.28;;
9922;SDS011;5000;50.546;9.720;2023-11-22T23:27:09;3.35;;;3.05;;
9922;SDS011;5000;50.546;9.720;2023-11-22T23:32:02;3.85;;;3.47;;
9922;SDS011;5000;50.546;9.720;2023-11-22T23:36:58;4.30;;;2.78;;
9922;SDS011;5000;50.546;9.720;2023-11-22T23:41:52;3.50;;;3.20;;
9922;SDS011;5000;50.546;9.720;2023-11-22T23:46:46;2.83;;;2.63;;
9922;SDS011;5000;50.546;9.720;2023-11-22T23:51:39;6.18;;;3.35;;
9922;SDS011;5000;50.546;9.720;2023-11-22T23:56:33;5.00;;;3.58;;
